X  Schlie├čen METAR Luftfahrt Wetterdaten     ETAR Ramstein Air Base
Temperatur
15°C Temperatur
14°C Taupunkt
94% Feuchtigkeit



Wind
0 MPH
0 KM/H
0 M/S
0 KTS



Kein Wind
N
Aktuelle Wetterlage

Klar Klar
Luftdruck 1015.24 (hPa) - 29.98 (inHg)
Sichtweite 6 (Meile) - 9.7 (Km)
Flughafen
Flughafen Code ETAR

Position : Ramstein Air Base
Entfernung: 25 (mi)

Metar:
ETAR 172155Z AUTO 00000KT 9999 CLR 15/14 A2998 RMK AO2 VIS 2400 RWY08 SLP155 T01470139

Zeit: 17-06-2024 23:55 CEST